AirNav   Air Wisconsin pilot careers
 
 1095 users online  

1MU4 Short Air Airport
Warrensburg, Missouri, USA

GOING TO WARRENSBURG?


FAA INFORMATION EFFECTIVE 08 NOVEMBER 2018

Location

FAA Identifier: 1MU4
Lat/Long: 38-39-06.0490N / 093-46-43.7770W
38-39.100817N / 093-46.729617W
38.6516803 / -93.7788269
(estimated)
Elevation: 840 ft. / 256 m (estimated)
Variation: 04E (1995)
From city: 6 miles S of WARRENSBURG, MO
Time zone: UTC -6 (UTC -5 during Daylight Saving Time)
Zip code: 64093

Airport Operations

Airport use: Private use. Permission required prior to landing
Activation date: 09/1996
Control tower: no
ARTCC: KANSAS CITY CENTER
FSS: COLUMBIA FLIGHT SERVICE STATION
Attendance: UNATNDD
Wind indicator: yes
Segmented circle: no

Airport Communications

WX AWOS-3 at RCM (8 nm N): 119.575 (660-422-7010)
WX AWOS-3 at GLY (18 nm S): 120.475 (660-885-3851)

Nearby radio navigation aids

VOR radial/distance  VOR name  Freq  Var
ANXr141/31.2NAPOLEON VORTAC114.0007E

 
NDB name  Hdg/Dist  Freq  Var  ID
GOLDEN VALLEY345/18.138801EGLY --. .-.. -.--
SEDALIA261/28.428103EDMO -.. -- ---
MARSHALL226/35.937103EPUR .--. ..- .-.

Airport Services

Runway Information

Runway 15/33

Dimensions: 2600 x 75 ft. / 792 x 23 m
Surface: turf
RUNWAY 15  RUNWAY 33
Traffic pattern: leftleft

Airport Ownership and Management from official FAA records

Ownership: Privately-owned
Owner: WALLACE S BROWN
226 SW 21
WARRENSBURG, MO 64093
Phone 816-747-5217
Manager: DAVID J SHORT
660 SW 21
WARRENSBURG, MO 64093
Phone 816-747-3659

Airport Operational Statistics

Aircraft based on the field: 3
Single engine airplanes: 3
    

Instrument Procedures

There are no published instrument procedures at 1MU4.

Some nearby airports with instrument procedures:

KRCM - Skyhaven Airport (8 nm N)
KSZL - Whiteman Air Force Base (12 nm NE)
KGLY - Clinton Regional Airport (18 nm S)
KHIG - Higginsville Industrial Municipal Airport (26 nm N)
KLRY - Lawrence Smith Memorial Airport (27 nm W)
 
Loc | Ops | Rwys | IFR | FBO | Links
Com | Nav | Svcs | Stats | Notes

Kansas City Aviation Department
 
Area around 1MU4 (Short Air Airport)
 
Road maps at: MapQuest Bing Google
 
Aerial photo
No photo
 
Sectional chart

 
Airport distance calculator
Flying to Short Air Airport? Find the distance to fly.

From to 1MU4

Sunrise and sunset
Times for 20-Nov-2018
 Local
(UTC-6)
 Zulu
(UTC)
Morning civil twilight06:3512:35
Sunrise07:0413:04
Sunset16:5822:58
Evening civil twilight17:2723:27

Current date and time
Zulu (UTC)  21-Nov-2018 02:20:38
Local (UTC-6)  20-Nov-2018 20:20:38
 
METAR
KRCM 
8nm N 
210155Z AUTO 17006KT 10SM CLR 01/M03 A3025 RMK AO2
KSZL 
12nm E 
210156Z 21008KT 10SM CLR 00/M04 A3021 RMK AO2A SLP242 T10031042 $
KGLY 
18nm S 
210155Z AUTO 21005KT 10SM CLR 02/M04 A3028 RMK AO2
TAF
KSZL 
12nm E 
201900Z 2019/2201 22006KT 9999 SKC QNH3020INS TX11/2118Z TN00/2111Z
NOTAMs
Click for the latest NOTAMs
NOTAMs are issued by the DoD/FAA and will open in a separate window not controlled by AirNav.

 

 
 

Would you like to see your business listed on this page?

 If your business provides an interesting product or service to pilots, flight crews, aircraft, or users of the Short Air Airport, you should consider listing it here.  To start the listing process, click on the button below
 
Add a business
 

Other Pages about Short Air Airport

Update a link
 
Copyright © AirNav, LLC. All rights reserved. Privacy Policy  Contact